Map

Track Data

SID SEASON NUMBER BASIN SUBBASIN NAME ISO_TIME NATURE LAT LON WMO_WIND WMO_PRES WMO_AGENCY TRACK_TYPE DIST2LAND LANDFALL IFLAG USA_AGENCY USA_ATCF_ID USA_LAT USA_LON USA_RECORD USA_STATUS USA_WIND USA_PRES USA_SSHS USA_R34_NE USA_R34_SE USA_R34_SW USA_R34_NW USA_R50_NE USA_R50_SE USA_R50_SW USA_R50_NW USA_R64_NE USA_R64_SE USA_R64_SW USA_R64_NW USA_POCI USA_ROCI USA_RMW USA_EYE TOKYO_LAT TOKYO_LON TOKYO_GRADE TOKYO_WIND TOKYO_PRES TOKYO_R50_DIR TOKYO_R50_LONG TOKYO_R50_SHORT TOKYO_R30_DIR TOKYO_R30_LONG TOKYO_R30_SHORT TOKYO_LAND CMA_LAT CMA_LON CMA_CAT CMA_WIND CMA_PRES HKO_LAT HKO_LON HKO_CAT HKO_WIND HKO_PRES NEWDELHI_LAT NEWDELHI_LON NEWDELHI_GRADE NEWDELHI_WIND NEWDELHI_PRES NEWDELHI_CI NEWDELHI_DP NEWDELHI_POCI REUNION_LAT REUNION_LON REUNION_TYPE REUNION_WIND REUNION_PRES REUNION_TNUM REUNION_CI REUNION_RMW REUNION_R34_NE REUNION_R34_SE REUNION_R34_SW REUNION_R34_NW REUNION_R50_NE REUNION_R50_SE REUNION_R50_SW REUNION_R50_NW REUNION_R64_NE REUNION_R64_SE REUNION_R64_SW REUNION_R64_NW BOM_LAT BOM_LON BOM_TYPE BOM_WIND BOM_PRES BOM_TNUM BOM_CI BOM_RMW BOM_R34_NE BOM_R34_SE BOM_R34_SW BOM_R34_NW BOM_R50_NE BOM_R50_SE BOM_R50_SW BOM_R50_NW BOM_R64_NE BOM_R64_SE BOM_R64_SW BOM_R64_NW BOM_ROCI BOM_POCI BOM_EYE BOM_POS_METHOD BOM_PRES_METHOD NADI_LAT NADI_LON NADI_CAT NADI_WIND NADI_PRES WELLINGTON_LAT WELLINGTON_LON WELLINGTON_WIND WELLINGTON_PRES DS824_LAT DS824_LON DS824_STAGE DS824_WIND DS824_PRES TD9636_LAT TD9636_LON TD9636_STAGE TD9636_WIND TD9636_PRES TD9635_LAT TD9635_LON TD9635_WIND TD9635_PRES TD9635_ROCI NEUMANN_LAT NEUMANN_LON NEUMANN_CLASS NEUMANN_WIND NEUMANN_PRES MLC_LAT MLC_LON MLC_CLASS MLC_WIND MLC_PRES USA_GUST BOM_GUST BOM_GUST_PER REUNION_GUST REUNION_GUST_PER USA_SEAHGT USA_SEARAD_NE USA_SEARAD_SE USA_SEARAD_SW USA_SEARAD_NW STORM_SPEED STORM_DIR
1961043S09099 1961 19 SI WA NOT_NAMED 1961-02-11 16:00:00 NR -9.00000 99.0000 main 663 663 __________O___ -1 -9.00000 99.0000 1 20 0 0
1961043S09099 1961 19 SI WA NOT_NAMED 1961-02-11 18:00:00 TS -8.99988 99.0049 main 663 663 O_________P___ jtwc_sh SH191961 -9.00000 99.0000 20 -1 -8.99977 99.0098 1 19 0 0
1961043S09099 1961 19 SI WA NOT_NAMED 1961-02-11 21:00:00 TS -8.98371 99.0250 main 663 663 P_________P___ SH191961 -8.96249 99.0375 17 -1 -9.01201 99.0083 1 17 0 0
1961043S09099 1961 19 SI WA NOT_NAMED 1961-02-12 00:00:00 TS -9.02265 98.9861 main 663 663 O_________P___ jtwc_sh SH191961 -9.00000 99.0000 15 -1 -9.05663 98.9652 1 16 1 226
1961043S09099 1961 19 SI WA NOT_NAMED 1961-02-12 01:00:00 TS -9.05060 98.9554 995 bom main 671 671 P_____O___P___ SH191961 -9.04121 98.9588 15 -1 -9.00000 99.0000 995 -9.08205 98.9373 1 16 4 226
1961043S09099 1961 19 SI WA NOT_NAMED 1961-02-12 03:00:00 TS -9.15386 98.8483 main 694 694 P_____P___P___ SH191961 -9.16251 98.8375 15 -1 -9.12099 98.8765 995 -9.15302 98.8556 1 15 5 225
1961043S09099 1961 19 SI WA NOT_NAMED 1961-02-12 04:00:00 TS -9.21976 98.7803 995 bom main 694 694 P_____O___O___ SH191961 -9.23704 98.7630 15 -1 -9.20000 98.8000 995 -9.20000 98.8000 1 15 7 225
1961043S09099 1961 19 SI WA NOT_NAMED 1961-02-12 06:00:00 TS -9.38140 98.6149 main 725 725 O_____P__OP___ jtwc_sh SH191961 -9.40000 98.6000 15 -1 -9.40247 98.6055 994 -9.40000 98.6000 TC 40 994 -9.31849 98.6577 1 15 7 225
1961043S09099 1961 19 SI WA NOT_NAMED 1961-02-12 07:00:00 TS -9.46361 98.5300 994 bom main 741 741 P_____O__PP___ SH191961 -9.47761 98.5250 15 -1 -9.50000 98.5000 994 -9.48480 98.5225 TC 40 993 -9.38863 98.5737 1 15 7 227
1961043S09099 1961 19 SI WA NOT_NAMED 1961-02-12 09:00:00 TS -9.62295 98.3557 main 757 764 P_____P__PP___ SH191961 -9.64248 98.3650 15 -1 -9.63687 98.2974 994 -9.65413 98.3665 TC 40 993 -9.54659 98.3872 1 15 7 227
1961043S09099 1961 19 SI WA NOT_NAMED 1961-02-12 10:00:00 TS -9.70542 98.2670 994 bom main 772 772 P_____O__PP___ SH191961 -9.72788 98.2800 15 -1 -9.70000 98.2000 994 -9.73854 98.2875 TC 40 993 -9.63278 98.2878 1 15 7 226
1961043S09099 1961 19 SI WA NOT_NAMED 1961-02-12 12:00:00 TS -9.87442 98.0854 main 804 804 O_____P__PP___ jtwc_sh SH191961 -9.90000 98.1000 15 -1 -9.84999 98.0166 993 -9.90656 98.1262 TC 40 993 -9.81556 98.0842 1 15 8 227
1961043S09099 1961 19 SI WA NOT_NAMED 1961-02-12 15:00:00 TS -10.1331 97.8040 main 842 842 P_____P__PP___ SH191961 -10.1500 97.7925 15 -1 -10.1062 97.7729 993 -10.1557 97.8729 TC 40 993 -10.1035 97.7894 1 15 8 227
1961043S09099 1961 19 SI WA NOT_NAMED 1961-02-12 16:00:00 TS -10.2209 97.7127 993 bom main 858 858 P_____O__PO___ SH191961 -10.2334 97.6896 15 -1 -10.2000 97.7000 993 -10.2378 97.7844 TC 40 993 -10.2000 97.7000 1 15 7 225
1961043S09099 1961 19 SI WA NOT_NAMED 1961-02-12 18:00:00 TS -10.3931 97.5431 main 889 889 O_____P__OP___ jtwc_sh SH191961 -10.4000 97.5000 15 -1 -10.3982 97.5732 993 -10.4000 97.6000 TC 40 993 -10.3671 97.5421 1 17 7 224
1961043S09099 1961 19 SI WA NOT_NAMED 1961-02-12 19:00:00 TS -10.4786 97.4600 993 bom main 898 898 P_____O__PP___ SH191961 -10.4807 97.4140 16 -1 -10.5000 97.5000 993 -10.4802 97.5042 TC 40 992 -10.4515 97.4678 1 18 7 223
1961043S09099 1961 19 SI WA NOT_NAMED 1961-02-12 21:00:00 TS -10.6517 97.2940 main 929 929 P_____P__PP___ SH191961 -10.6425 97.2625 20 -1 -10.7079 97.2975 992 -10.6419 97.3174 TC 42 992 -10.6239 97.3302 1 21 7 223
1961043S09099 1961 19 SI WA NOT_NAMED 1961-02-12 22:00:00 TS -10.7377 97.2197 992 bom main 936 936 P_____O__PP___ SH191961 -10.7254 97.1988 21 -1 -10.8000 97.2000 992 -10.7250 97.2332 TC 43 992 -10.7125 97.2675 1 22 6 217
1961043S09099 1961 19 SI WA NOT_NAMED 1961-02-13 00:00:00 TS -10.9054 97.1004 main 960 960 O_____P__OP___ jtwc_sh SH191961 -10.9000 97.1000 25 -1 -10.9309 97.0454 992 -10.9000 97.1000 TC 45 992 -10.8963 97.1564 1 25 6 212
1961043S09099 1961 19 SI WA NOT_NAMED 1961-02-13 01:00:00 TS -10.9922 97.0587 992 bom main 968 968 P_____O__PP___ SH191961 -10.9890 97.0636 25 -1 -11.0000 97.0000 992 -10.9906 97.0578 TC 45 992 -10.9922 97.1085 1 26 6 198
1961043S09099 1961 19 SI WA NOT_NAMED 1961-02-13 03:00:00 TS -11.1850 97.0143 main 992 992 P_____P__PP___ SH191961 -11.1775 97.0200 27 -1 -11.1946 96.9891 992 -11.1820 97.0124 TC 45 992 -11.1937 97.0300 1 28 6 191
1961043S09099 1961 19 SI WA NOT_NAMED 1961-02-13 04:00:00 TS -11.2882 97.0044 992 bom main 1001 1001 P_____O__PO___ SH191961 -11.2788 97.0091 28 -1 -11.3000 97.0000 992 -11.2835 97.0037 TC 45 992 -11.3000 97.0000 1 30 6 0
1961043S09099 1961 19 SI WA NOT_NAMED 1961-02-13 06:00:00 TS -11.5044 96.9920 main 1018 1018 O_____P__OP___ jtwc_sh SH191961 -11.5000 97.0000 30 -1 -11.4921 97.0000 992 -11.5000 97.0000 TC 45 992 -11.5297 96.9599 1 28 7 184
1961043S09099 1961 19 SI WA NOT_NAMED 1961-02-13 07:00:00 TS -11.6230 96.9858 992 bom main 1027 1027 P_____O__PP___ SH191961 -11.6245 96.9943 29 -1 -11.6000 97.0000 992 -11.6155 96.9911 TC 45 991 -11.6503 96.9494 1 27 8 182
1961043S09099 1961 19 SI WA NOT_NAMED 1961-02-13 09:00:00 TS -11.8815 96.9820 main 1053 1053 P_____P__PP___ SH191961 -11.8925 96.9925 27 -1 -11.8602 97.0000 991 -11.8625 96.9812 TC 45 991 -11.8997 96.9439 1 25 8 183
1961043S09099 1961 19 SI WA NOT_NAMED 1961-02-13 10:00:00 TS -12.0162 96.9832 991 bom main 1061 1061 P_____O__PP___ SH191961 -12.0304 96.9946 26 -1 -12.0000 97.0000 991 -11.9926 96.9796 TC 45 991 -12.0274 96.9472 1 25 8 0
1961043S09099 1961 19 SI WA NOT_NAMED 1961-02-13 12:00:00 TS -12.2831 96.9886 main 1088 1088 O_____P__PP___ jtwc_sh SH191961 -12.3000 97.0000 25 -1 -12.2667 97.0000 991 -12.2625 96.9812 TC 45 991 -12.2861 96.9617 1 23 8 0
1961043S09099 1961 19 SI WA NOT_NAMED 1961-02-13 15:00:00 TS -12.6643 96.9964 main 1115 1115 P_____P__PP___ SH191961 -12.6500 97.0000 22 -1 -12.6667 97.0000 991 -12.6813 96.9906 TC 45 991 -12.6734 96.9913 1 20 8 0
1961043S09099 1961 19 SI WA NOT_NAMED 1961-02-13 16:00:00 TS -12.7900 96.9988 main 1122 1122 P_____P__PO___ SH191961 -12.7642 97.0000 21 -1 -12.8000 97.0000 991 -12.8218 96.9942 TC 45 991 -12.8000 97.0000 1 20 8 177
1961043S09099 1961 19 SI WA NOT_NAMED 1961-02-13 18:00:00 TS -13.0453 97.0000 main 1135 1142 O_____P__OP___ jtwc_sh SH191961 -13.0000 97.0000 20 -1 -13.0667 97.0000 991 -13.1000 97.0000 TC 45 991 -13.0600 97.0000 1 20 8 179
1961043S09099 1961 19 SI WA NOT_NAMED 1961-02-13 19:00:00 TS -13.1796 97.0000 991 bom main 1149 1149 P_____O__PP___ SH191961 -13.1329 97.0000 20 -1 -13.2000 97.0000 991 -13.2427 97.0000 TC 45 990 -13.1897 97.0000 1 20 8 177
1961043S09099 1961 19 SI WA NOT_NAMED 1961-02-13 21:00:00 TS -13.4501 97.0000 main 1170 1170 P_____P__PP___ SH191961 -13.4075 97.0000 20 -1 -13.4667 97.0000 991 -13.5244 97.0000 TC 45 990 -13.4442 97.0000 1 20 8 177
1961043S09099 1961 19 SI WA NOT_NAMED 1961-02-13 22:00:00 TS -13.5827 97.0000 991 bom main 1177 1177 P_____O__PP___ SH191961 -13.5437 97.0000 20 -1 -13.6000 97.0000 991 -13.6584 97.0000 TC 45 990 -13.5675 97.0000 1 20 8 176
1961043S09099 1961 19 SI WA NOT_NAMED 1961-02-14 00:00:00 TS -13.8369 97.0000 main 1191 1198 O_____P__OP___ jtwc_sh SH191961 -13.8000 97.0000 20 -1 -13.8825 97.0000 990 -13.9000 97.0000 TC 45 990 -13.8020 97.0000 1 20 7 0
1961043S09099 1961 19 SI WA NOT_NAMED 1961-02-14 01:00:00 TS -13.9523 97.0000 990 bom main 1206 1206 P_____O__PP___ SH191961 -13.9219 97.0000 20 -1 -14.0000 97.0000 990 -14.0063 97.0000 TC 45 990 -13.9115 97.0000 1 20 6 177
1961043S09099 1961 19 SI WA NOT_NAMED 1961-02-14 03:00:00 TS -14.1454 97.0000 main 1213 1220 P_____P__PP___ SH191961 -14.1450 97.0000 20 -1 -14.1363 97.0000 990 -14.1891 97.0000 TC 45 990 -14.1114 97.0000 1 20 6 0
1961043S09099 1961 19 SI WA NOT_NAMED 1961-02-14 04:00:00 TS -14.2304 97.0000 990 bom main 1220 1220 P_____O__PO___ SH191961 -14.2425 97.0000 20 -1 -14.2000 97.0000 990 -14.2671 97.0000 TC 45 990 -14.2000 97.0000 1 20 5 184
1961043S09099 1961 19 SI WA NOT_NAMED 1961-02-14 06:00:00 TS -14.3854 96.9995 main 1235 1235 O_____P__OP___ jtwc_sh SH191961 -14.4000 97.0000 20 -1 -14.4025 97.0000 990 -14.4000 97.0000 TC 45 990 -14.3247 96.9974 1 18 4 0
1961043S09099 1961 19 SI WA NOT_NAMED 1961-02-14 07:00:00 TS -14.4443 96.9992 990 bom main 1235 1235 P_____O__PP___ SH191961 -14.4509 97.0000 18 -1 -14.5000 97.0000 990 -14.4448 97.0000 TC 45 990 -14.3750 96.9960 1 17 3 185
1961043S09099 1961 19 SI WA NOT_NAMED 1961-02-14 09:00:00 TS -14.5276 96.9987 main 1243 1243 P_____P__PP___ SH191961 -14.5150 97.0000 15 -1 -14.6472 97.0000 990 -14.5000 97.0000 TC 45 990 -14.4608 96.9934 1 15 2 0
1961043S09099 1961 19 SI WA NOT_NAMED 1961-02-14 10:00:00 TS -14.5590 96.9985 990 bom main 1251 1251 P_____O__PP___ SH191961 -14.5393 97.0000 13 -1 -14.7000 97.0000 990 -14.5167 97.0000 TC 45 990 -14.5000 96.9926 1 15 2 0
1961043S09099 1961 19 SI WA NOT_NAMED 1961-02-14 12:00:00 TS -14.6189 96.9984 main 1251 1251 O_____P__PP___ jtwc_sh SH191961 -14.6000 97.0000 10 -1 -14.7704 97.0000 990 -14.5438 97.0000 TC 45 990 -14.5802 96.9922 1 13 2 0
1961043S09099 1961 19 SI WA NOT_NAMED 1961-02-14 15:00:00 TS -14.7316 96.9993 main 1258 1258 P_____P__PP___ SH191961 -14.7550 97.0000 10 -1 -14.7995 97.0000 990 -14.6156 97.0000 TC 45 990 -14.7330 96.9967 1 10 2 177
1961043S09099 1961 19 SI WA NOT_NAMED 1961-02-14 16:00:00 TS -14.7818 97.0000 990 bom main 1266 1266 P_____O__PO___ SH191961 -14.8242 97.0000 10 -1 -14.8000 97.0000 990 -14.6604 97.0000 TC 45 990 -14.8000 97.0000 1 10 4 0
1961043S09099 1961 19 SI WA NOT_NAMED 1961-02-14 18:00:00 TS -14.9183 97.0006 main 1274 1274 O_____P__OP___ jtwc_sh SH191961 -15.0000 97.0000 10 -1 -14.7934 97.0000 990 -14.8000 97.0000 TC 45 990 -14.9981 97.0031 1 10 5 0
1961043S09099 1961 19 SI WA NOT_NAMED 1961-02-14 19:00:00 TS -15.0102 96.9989 990 bom main 1282 1282 P_____O__PP___ SH191961 -15.1157 96.9974 10 -1 -14.8000 97.0000 990 -14.9110 96.9938 TC 45 990 -15.1087 97.0057 1 10 6 184
1961043S09099 1961 19 SI WA NOT_NAMED 1961-02-14 21:00:00 TS -15.2138 96.9966 main 1298 1298 P_____P__PP___ SH191961 -15.3850 96.9925 10 -1 -14.7822 97.0000 990 -15.1707 96.9838 TC 45 990 -15.3461 97.0140 1 10 7 184
1961043S09099 1961 19 SI WA NOT_NAMED 1961-02-14 22:00:00 TS -15.3474 96.9975 990 bom main 1306 1306 P_____O__PP___ SH191961 -15.5274 96.9921 10 -1 -14.9000 97.0000 990 -15.3121 96.9833 TC 45 990 -15.4700 97.0201 1 10 10 0
1961043S09099 1961 19 SI WA NOT_NAMED 1961-02-15 00:00:00 TS -15.7143 97.0060 main 1338 1338 O_____P__OP___ jtwc_sh SH191961 -15.8000 97.0000 10 -1 -15.6501 96.9921 990 -15.6000 97.0000 TC 45 990 -15.7215 97.0377 1 10 11 178
1961043S09099 1961 19 SI WA NOT_NAMED 1961-02-15 01:00:00 TS -15.8823 97.0174 990 bom main 1355 1355 P_____O__PP___ SH191961 -15.9140 97.0083 10 -1 -16.0000 97.0000 990 -15.7371 97.0208 TC 45 990 -15.8462 97.0495 1 10 8 171
1961043S09099 1961 19 SI WA NOT_NAMED 1961-02-15 03:00:00 TS -16.1034 97.0571 main 1364 1364 P_____P__PP___ SH191961 -16.1225 97.0350 10 -1 -16.1743 97.0534 990 -16.0109 97.0818 TC 45 990 -16.0869 97.0804 1 10 6 168
1961043S09099 1961 19 SI WA NOT_NAMED 1961-02-15 04:00:00 TS -16.1965 97.0852 990 bom main 1373 1373 P_____O__PO___ SH191961 -16.2188 97.0534 10 -1 -16.2000 97.1000 990 -16.1448 97.1191 TC 45 990 -16.2000 97.1000 1 10 6 162
1961043S09099 1961 19 SI WA NOT_NAMED 1961-02-15 06:00:00 TS -16.3989 97.1560 main 1383 1383 O_____P__OP___ jtwc_sh SH191961 -16.4000 97.1000 10 -1 -16.4025 97.2358 990 -16.4000 97.2000 TC 45 991 -16.3921 97.1443 1 10 6 161
1961043S09099 1961 19 SI WA NOT_NAMED 1961-02-15 07:00:00 TS -16.4961 97.1909 991 bom main 1392 1392 P_____O__PP___ SH191961 -16.4890 97.1250 10 -1 -16.5000 97.3000 991 -16.5197 97.2339 TC -16.4828 97.1703 1 10 6 160
1961043S09099 1961 19 SI WA NOT_NAMED 1961-02-15 09:00:00 TS -16.6701 97.2555 main 1402 1402 P_____P__PP___ SH191961 -16.6575 97.1850 10 -1 -16.6369 97.3754 991 -16.7435 97.3025 TC -16.6551 97.2296 1 10 5 159
1961043S09099 1961 19 SI WA NOT_NAMED 1961-02-15 10:00:00 TS -16.7526 97.2880 991 bom main 1411 1411 P_____O__PP___ SH191961 -16.7388 97.2200 10 -1 -16.7000 97.4000 991 -16.8480 97.3374 TC -16.7375 97.2626 1 10 5 159
1961043S09099 1961 19 SI WA NOT_NAMED 1961-02-15 12:00:00 TS -16.9181 97.3556 main 1413 1413 O_____P__PP___ jtwc_sh SH191961 -16.9000 97.3000 10 -1 -16.8512 97.4348 991 -17.0429 97.4085 TC -16.8963 97.3346 1 10 5 158
1961043S09099 1961 19 SI WA NOT_NAMED 1961-02-15 15:00:00 TS -17.1702 97.4674 main 1434 1434 P_____P__PP___ SH191961 -17.1575 97.4425 10 -1 -17.1076 97.4760 991 -17.3033 97.5195 TC -17.1249 97.4563 1 10 6 156
1961043S09099 1961 19 SI WA NOT_NAMED 1961-02-15 16:00:00 TS -17.2529 97.5094 992 bom main 1442 1436 P_____O__PO___ SH191961 -17.2412 97.4946 10 -1 -17.2000 97.5000 992 -17.3823 97.5580 TC -17.2000 97.5000 1 10 6 153
1961043S09099 1961 19 SI WA NOT_NAMED 1961-02-15 18:00:00 TS -17.4201 97.6007 main 1445 1445 O_____P__PP___ jtwc_sh SH191961 -17.4000 97.6000 10 -1 -17.4074 97.5777 992 -17.5296 97.6373 TC -17.3636 97.5886 1 6 150
1961043S09099 1961 19 SI WA NOT_NAMED 1961-02-15 21:00:00 TS -17.6516 97.7471 main 1467 1461 P_____P__PP___ SH191961 -17.6075 97.7501 10 -1 -17.7135 97.7380 993 -17.7268 97.7636 TC -17.6028 97.7340 1 5 148
1961043S09099 1961 19 SI WA NOT_NAMED 1961-02-15 22:00:00 TS -17.7222 97.7986 994 bom main 1461 1461 P_____O__PP___ SH191961 -17.6721 97.8000 10 -1 -17.8000 97.8000 994 -17.7870 97.8079 TC -17.6800 97.7850 1 5 143
1961043S09099 1961 19 SI WA NOT_NAMED 1961-02-16 00:00:00 TS -17.8549 97.9058 main 1473 1473 O_____P__OP___ jtwc_sh SH191961 -17.8000 97.9000 10 -1 -17.9453 97.9399 994 -17.9000 97.9000 TC 40 995 -17.8291 97.8891 1 5 142
1961043S09099 1961 19 SI WA NOT_NAMED 1961-02-16 01:00:00 TS -17.9190 97.9580 995 bom main 1468 1468 P_____O__PP___ SH191961 -17.8693 97.9500 10 -1 -18.0000 98.0000 995 -17.9558 97.9481 TC 39 995 -17.9006 97.9418 1 5 142
1961043S09099 1961 19 SI WA NOT_NAMED 1961-02-16 03:00:00 TS -18.0347 98.0518 main 1471 1471 P_____P__PP___ SH191961 -18.0075 98.0500 10 -1 -18.0642 98.0642 995 -18.0580 98.0474 TC 37 995 -18.0363 98.0475 1 4 141
1961043S09099 1961 19 SI WA NOT_NAMED 1961-02-16 04:00:00 TS -18.0910 98.0996 996 bom main 1481 1481 P_____O__PO___ SH191961 -18.0746 98.1000 10 -1 -18.1000 98.1000 996 -18.1060 98.0981 TC 36 995 -18.1000 98.1000 1 5 140
1961043S09099 1961 19 SI WA NOT_NAMED 1961-02-16 06:00:00 TS -18.2109 98.2078 main 1485 1485 O_____P__OP___ jtwc_sh SH191961 -18.2000 98.2000 10 -1 -18.2358 98.2358 996 -18.2000 98.2000 TC 35 996 -18.2187 98.2034 1 5 139
1961043S09099 1961 19 SI WA NOT_NAMED 1961-02-16 07:00:00 TS -18.2680 98.2614 996 bom main 1489 1489 P_____O__PP___ SH191961 -18.2568 98.2500 10 -1 -18.3000 98.3000 996 -18.2526 98.2525 TC 35 996 -18.2741 98.2544 1 4 138
1961043S09099 1961 19 SI WA NOT_NAMED 1961-02-16 09:00:00 TS -18.3666 98.3581 main 1493 1493 P_____P__PP___ SH191961 -18.3600 98.3500 10 -1 -18.3718 98.3719 996 -18.3594 98.3593 TC 35 996 -18.3783 98.3551 1 4 137
1961043S09099 1961 19 SI WA NOT_NAMED 1961-02-16 10:00:00 TS -18.4121 98.4045 997 bom main 1493 1493 P_____O__PP___ SH191961 -18.4079 98.4000 10 -1 -18.4000 98.4000 997 -18.4130 98.4129 TC 35 996 -18.4276 98.4049 1 4 136
1961043S09099 1961 19 SI WA NOT_NAMED 1961-02-16 12:00:00 TS -18.5056 98.5014 main 1497 1497 O_____P__PP___ jtwc_sh SH191961 -18.5000 98.5000 10 -1 -18.4831 98.4831 997 -18.5188 98.5187 TC 35 997 -18.5218 98.5039 1 4 136
1961043S09099 1961 19 SI WA NOT_NAMED 1961-02-16 15:00:00 TS -18.6483 98.6472 main 1502 1506 ______P__PP___ SH191961 -1 -18.6239 98.6238 997 -18.6688 98.6687 TC 35 997 -18.6561 98.6511 1 4 136
1961043S09099 1961 19 SI WA NOT_NAMED 1961-02-16 16:00:00 TS -18.6939 98.6938 main 1506 1506 ______P__PO___ SH191961 -1 -18.6711 98.6711 997 -18.7151 98.7150 TC 35 997 -18.7000 98.7000 1 4 137
1961043S09099 1961 19 SI WA NOT_NAMED 1961-02-16 18:00:00 TS -18.7801 98.7801 main 1511 1511 ______P__O____ -1 -18.7602 98.7602 997 -18.8000 98.8000 TC 35 998 1 3 137
1961043S09099 1961 19 SI WA NOT_NAMED 1961-02-16 19:00:00 TS -18.8191 98.8191 998 bom main 1511 1511 ______O__P____ -1 -18.8000 98.8000 998 -18.8381 98.8381 TC 34 998 1 3 137
1961043S09099 1961 19 SI WA NOT_NAMED 1961-02-16 21:00:00 TS -18.8845 98.8845 main 1516 1516 ______P__P____ -1 -18.8675 98.8676 998 -18.9070 98.9070 TC 32 999 1 3 137
1961043S09099 1961 19 SI WA NOT_NAMED 1961-02-16 22:00:00 TS -18.9156 98.9156 999 bom main 1516 1516 ______O__P____ -1 -18.9000 98.9000 999 -18.9389 98.9389 TC 31 999 1 3 135
1961043S09099 1961 19 SI WA NOT_NAMED 1961-02-17 00:00:00 TS -18.9776 98.9776 main 1521 1521 ______P__O____ -1 -18.9664 98.9663 999 -19.0000 99.0000 TC 30 1000 1 2 135
1961043S09099 1961 19 SI WA NOT_NAMED 1961-02-17 01:00:00 NR -19.0000 99.0000 1000 bom main 1521 ______O_______ -1 -19.0000 99.0000 1000 TC 1 2 0

About IBTrACS Database

This database is a web-friendly format of International Best Track Archive for Climate Stewardship (IBTrACS), a global best track data archive curated by NOAA dating back to 1842.

Updated: 2021-10-27